Impacts METAR Board INFO
IDs:

KPHL - Philadelphia Intl, PA, US

Updated at: 1811 UTC 23 Jan 2018
Potential Impact None Slight Moderate High
Time23/06Z 23/07Z 23/08Z 23/09Z 23/10Z 23/11Z 23/12Z 23/13Z 23/14Z 23/15Z 23/16Z 23/17Z 23/18Z
VIS10 10 10 10 9 8 10 10 10 10 10 10 10
CIG-- -- 90 14 38 37 130 90 12 10 24 44 250
CoverSCTFEWBKNOVCOVCOVCOVCOVCOVCOVCBKNBKNBKN
FltCatVFRVFRVFRMVFRVFRVFRVFRVFRMVFRMVFRMVFRVFRVFR
WX-----------RA---RA-RA--------
WDir180180200170180190170170170190200280290
WSpd8 9 7 3 9 7 12 11 14 9 7 8 8
WGst-- -- -- -- 17 -- 19 21 19 -- -- -- --
Raw hourly METARs
KPHL 230554Z 18008KT 10SM SCT100 11/04 A2996 RMK AO2 SLP143 T01060044 10117 20078 $
KPHL 230654Z 18009KT 10SM FEW100 11/06 A2993 RMK AO2 SLP134 T01060056 $
KPHL 230754Z 20007KT 10SM FEW065 BKN090 BKN180 10/06 A2990 RMK AO2 SLP126 T01000061 $
KPHL 230901Z 17003KT 10SM BKN014 BKN032 OVC045 11/08 A2984 RMK AO2 T01110078 $
KPHL 230954Z 18009G17KT 9SM SCT020 BKN038 OVC080 12/09 A2981 RMK AO2 LTG DSNT W RAB10E23B29E49 SLP095 OCNL LTGIC DSNT W CB DSNT W MOV SE P0003 T01170094 $
KPHL 231054Z 19007KT 8SM -RA FEW013 BKN037 OVC046 12/11 A2978 RMK AO2 RAB01E46B51 SLP083 P0003 T01220106 $
KPHL 231154Z 17012G19KT 10SM FEW013 SCT090 BKN130 OVC220 13/11 A2974 RMK AO2 RAE07 SLP071 P0000 60006 70006 T01330111 10133 20094 58034 $
KPHL 231254Z 17011G21KT 10SM -RA FEW010 BKN090 OVC110 14/12 A2970 RMK AO2 SLP057 RAB1158 P0003 T01390117
KPHL 231401Z 17014G19KT 10SM -RA BKN012 BKN040 OVC060 14/12 A2968 RMK AO2 CIG 010V014 P0000 T01390122
KPHL 231454Z 19009KT 10SM OVC010 14/13 A2966 RMK AO2 PK WND 18027/1411 RAE08 SLP042 CIG 008V012 P0000 60018 T01440128 56029 $
KPHL 231554Z 20007KT 10SM SCT010 BKN024 BKN095 14/13 A2961 RMK AO2 WSHFT 1518 SLP027 RAB13RAE50 P0015 T01440133 $
KPHL 231701Z 28008KT 10SM SCT012 SCT025 BKN044 13/11 A2960 RMK AO2 RAE00 VCSH P0000 T01330106 $
KPHL 231754Z 29008KT 10SM FEW033 FEW060 SCT100 BKN250 15/11 A2957 RMK AO2 RAE00 SLP014 P0000 60040 T01500106 10161 20133 56027 $